sensor_id;sensor_type;location;lat;lon;timestamp;pressure;altitude;pressure_sealevel;temperature;humidity
35918;BME280;22011;59.912;30.300;2023-07-08T00:01:11;101446.63;;;18.45;69.22
35918;BME280;22011;59.912;30.300;2023-07-08T00:03:39;101447.47;;;18.45;68.31
35918;BME280;22011;59.912;30.300;2023-07-08T00:06:11;101450.50;;;18.70;68.43
35918;BME280;22011;59.912;30.300;2023-07-08T00:08:41;101445.94;;;18.71;67.64
35918;BME280;22011;59.912;30.300;2023-07-08T00:11:10;101444.13;;;18.43;68.49
35918;BME280;22011;59.912;30.300;2023-07-08T00:13:38;101439.31;;;18.39;68.24
35918;BME280;22011;59.912;30.300;2023-07-08T00:16:09;101441.66;;;18.48;69.19
35918;BME280;22011;59.912;30.300;2023-07-08T00:18:37;101439.47;;;18.24;69.22
35918;BME280;22011;59.912;30.300;2023-07-08T00:21:09;101441.16;;;18.32;70.18
35918;BME280;22011;59.912;30.300;2023-07-08T00:23:36;101434.06;;;18.24;69.19
35918;BME280;22011;59.912;30.300;2023-07-08T00:26:10;101435.16;;;18.36;70.28
35918;BME280;22011;59.912;30.300;2023-07-08T00:28:38;101429.53;;;18.31;69.43
35918;BME280;22011;59.912;30.300;2023-07-08T00:31:08;101428.31;;;18.34;69.88
35918;BME280;22011;59.912;30.300;2023-07-08T00:33:37;101425.81;;;18.32;69.57
35918;BME280;22011;59.912;30.300;2023-07-08T00:36:09;101426.84;;;18.31;70.10
35918;BME280;22011;59.912;30.300;2023-07-08T00:38:38;101415.56;;;18.21;69.56
35918;BME280;22011;59.912;30.300;2023-07-08T00:41:15;101419.94;;;18.22;70.58
35918;BME280;22011;59.912;30.300;2023-07-08T00:43:47;101418.47;;;18.19;70.12
35918;BME280;22011;59.912;30.300;2023-07-08T00:46:31;101422.03;;;18.26;70.70
35918;BME280;22011;59.912;30.300;2023-07-08T00:49:09;101412.91;;;18.27;70.14
35918;BME280;22011;59.912;30.300;2023-07-08T00:51:41;101404.03;;;18.34;70.07
35918;BME280;22011;59.912;30.300;2023-07-08T00:54:11;101416.47;;;18.35;69.23
35918;BME280;22011;59.912;30.300;2023-07-08T00:56:42;101410.53;;;18.52;68.99
35918;BME280;22011;59.912;30.300;2023-07-08T00:59:18;101405.16;;;18.52;69.28
35918;BME280;22011;59.912;30.300;2023-07-08T01:01:48;101407.63;;;18.47;69.22
35918;BME280;22011;59.912;30.300;2023-07-08T01:04:20;101407.56;;;18.34;69.23
35918;BME280;22011;59.912;30.300;2023-07-08T01:06:53;101403.75;;;18.22;69.32
35918;BME280;22011;59.912;30.300;2023-07-08T01:09:25;101414.88;;;18.06;70.42
35918;BME280;22011;59.912;30.300;2023-07-08T01:11:57;101407.78;;;17.98;70.25
35918;BME280;22011;59.912;30.300;2023-07-08T01:14:27;101403.13;;;17.85;70.69
35918;BME280;22011;59.912;30.300;2023-07-08T01:16:58;101401.81;;;17.75;70.62
35918;BME280;22011;59.912;30.300;2023-07-08T01:19:26;101404.53;;;17.81;70.49
35918;BME280;22011;59.912;30.300;2023-07-08T01:22:01;101403.22;;;17.98;69.91
35918;BME280;22011;59.912;30.300;2023-07-08T01:24:30;101402.22;;;18.06;69.55
35918;BME280;22011;59.912;30.300;2023-07-08T01:27:00;101402.88;;;18.15;69.23
35918;BME280;22011;59.912;30.300;2023-07-08T01:29:29;101399.13;;;18.09;68.83
35918;BME280;22011;59.912;30.300;2023-07-08T01:31:57;101396.66;;;18.14;68.71
35918;BME280;22011;59.912;30.300;2023-07-08T01:34:28;101397.88;;;18.12;69.11
35918;BME280;22011;59.912;30.300;2023-07-08T01:36:57;101400.38;;;18.13;69.13
35918;BME280;22011;59.912;30.300;2023-07-08T01:39:29;101402.50;;;18.18;70.07
35918;BME280;22011;59.912;30.300;2023-07-08T01:41:57;101401.22;;;18.14;69.36
35918;BME280;22011;59.912;30.300;2023-07-08T01:44:28;101407.00;;;18.11;69.94
35918;BME280;22011;59.912;30.300;2023-07-08T01:46:59;101402.84;;;18.08;70.56
35918;BME280;22011;59.912;30.300;2023-07-08T01:49:28;101406.19;;;18.10;69.51
35918;BME280;22011;59.912;30.300;2023-07-08T01:51:56;101405.00;;;18.19;70.52
35918;BME280;22011;59.912;30.300;2023-07-08T01:54:24;101402.09;;;18.21;69.64
35918;BME280;22011;59.912;30.300;2023-07-08T01:56:55;101404.47;;;18.37;69.80
35918;BME280;22011;59.912;30.300;2023-07-08T01:59:24;101406.69;;;18.27;69.27
35918;BME280;22011;59.912;30.300;2023-07-08T02:01:52;101403.91;;;18.14;70.25
35918;BME280;22011;59.912;30.300;2023-07-08T02:04:21;101404.47;;;18.03;70.60
35918;BME280;22011;59.912;30.300;2023-07-08T02:06:53;101400.75;;;18.04;71.19
35918;BME280;22011;59.912;30.300;2023-07-08T02:09:22;101407.09;;;18.24;70.23
35918;BME280;22011;59.912;30.300;2023-07-08T02:11:51;101401.69;;;18.24;69.85
35918;BME280;22011;59.912;30.300;2023-07-08T02:14:20;101415.75;;;18.13;70.59
35918;BME280;22011;59.912;30.300;2023-07-08T02:16:48;101401.66;;;18.17;69.85
35918;BME280;22011;59.912;30.300;2023-07-08T02:19:16;101399.19;;;18.22;69.53
35918;BME280;22011;59.912;30.300;2023-07-08T02:21:43;101413.41;;;18.44;69.55
35918;BME280;22011;59.912;30.300;2023-07-08T02:24:11;101418.09;;;18.29;68.28
35918;BME280;22011;59.912;30.300;2023-07-08T02:26:38;101418.66;;;18.18;68.80
35918;BME280;22011;59.912;30.300;2023-07-08T02:29:07;101408.69;;;18.12;68.79
35918;BME280;22011;59.912;30.300;2023-07-08T02:31:36;101410.22;;;18.27;68.84
35918;BME280;22011;59.912;30.300;2023-07-08T02:34:04;101408.31;;;18.21;68.36
35918;BME280;22011;59.912;30.300;2023-07-08T02:36:33;101406.22;;;18.17;69.47
35918;BME280;22011;59.912;30.300;2023-07-08T02:39:00;101404.31;;;18.11;68.63
35918;BME280;22011;59.912;30.300;2023-07-08T02:41:28;101408.75;;;18.25;70.14
35918;BME280;22011;59.912;30.300;2023-07-08T02:43:55;101400.63;;;18.18;68.44
35918;BME280;22011;59.912;30.300;2023-07-08T02:46:23;101402.28;;;18.19;68.91
35918;BME280;22011;59.912;30.300;2023-07-08T02:48:52;101415.41;;;18.29;69.09
35918;BME280;22011;59.912;30.300;2023-07-08T02:51:19;101401.31;;;18.34;68.51
35918;BME280;22011;59.912;30.300;2023-07-08T02:53:48;101399.47;;;18.34;68.69
35918;BME280;22011;59.912;30.300;2023-07-08T02:56:16;101393.81;;;18.22;69.00
35918;BME280;22011;59.912;30.300;2023-07-08T02:58:44;101401.06;;;18.22;68.76
35918;BME280;22011;59.912;30.300;2023-07-08T03:01:11;101401.47;;;18.19;69.19
35918;BME280;22011;59.912;30.300;2023-07-08T03:03:43;101398.75;;;18.19;69.33
35918;BME280;22011;59.912;30.300;2023-07-08T03:06:12;101404.38;;;18.24;69.34
35918;BME280;22011;59.912;30.300;2023-07-08T03:08:40;101401.50;;;18.25;69.46
35918;BME280;22011;59.912;30.300;2023-07-08T03:11:08;101402.56;;;18.31;69.41
35918;BME280;22011;59.912;30.300;2023-07-08T03:13:35;101398.69;;;18.47;68.14
35918;BME280;22011;59.912;30.300;2023-07-08T03:16:04;101395.59;;;18.56;67.82
35918;BME280;22011;59.912;30.300;2023-07-08T03:18:39;101403.06;;;18.54;67.73
35918;BME280;22011;59.912;30.300;2023-07-08T03:21:16;101413.47;;;18.57;68.35
35918;BME280;22011;59.912;30.300;2023-07-08T03:23:44;101398.91;;;18.52;67.70
35918;BME280;22011;59.912;30.300;2023-07-08T03:26:13;101400.03;;;18.64;67.50
35918;BME280;22011;59.912;30.300;2023-07-08T03:28:42;101395.59;;;18.56;68.32
35918;BME280;22011;59.912;30.300;2023-07-08T03:31:11;101397.13;;;18.72;67.88
35918;BME280;22011;59.912;30.300;2023-07-08T03:33:38;101396.94;;;18.67;66.79
35918;BME280;22011;59.912;30.300;2023-07-08T03:36:11;101400.25;;;18.76;67.79
35918;BME280;22011;59.912;30.300;2023-07-08T03:38:40;101397.03;;;18.52;68.12
35918;BME280;22011;59.912;30.300;2023-07-08T03:41:09;101391.66;;;18.52;67.69
35918;BME280;22011;59.912;30.300;2023-07-08T03:43:36;101400.16;;;18.49;68.10
35918;BME280;22011;59.912;30.300;2023-07-08T03:46:04;101398.78;;;18.67;68.25
35918;BME280;22011;59.912;30.300;2023-07-08T03:48:31;101404.75;;;18.55;67.62
35918;BME280;22011;59.912;30.300;2023-07-08T03:51:00;101396.66;;;18.55;68.53
35918;BME280;22011;59.912;30.300;2023-07-08T03:53:28;101402.03;;;18.55;68.12
35918;BME280;22011;59.912;30.300;2023-07-08T03:55:58;101403.88;;;18.48;68.54
35918;BME280;22011;59.912;30.300;2023-07-08T03:58:26;101397.88;;;18.53;68.82
35918;BME280;22011;59.912;30.300;2023-07-08T04:00:54;101386.19;;;18.39;68.67
35918;BME280;22011;59.912;30.300;2023-07-08T04:03:22;101388.53;;;18.49;69.00
35918;BME280;22011;59.912;30.300;2023-07-08T04:05:49;101394.19;;;18.60;68.34
35918;BME280;22011;59.912;30.300;2023-07-08T04:08:17;101390.28;;;18.76;67.69
35918;BME280;22011;59.912;30.300;2023-07-08T04:10:45;101370.97;;;18.86;67.23
35918;BME280;22011;59.912;30.300;2023-07-08T04:13:14;101385.72;;;18.83;67.41
35918;BME280;22011;59.912;30.300;2023-07-08T04:15:41;101378.66;;;18.76;67.25
35918;BME280;22011;59.912;30.300;2023-07-08T04:18:09;101382.81;;;18.72;67.43
35918;BME280;22011;59.912;30.300;2023-07-08T04:20:36;101388.00;;;18.67;67.47
35918;BME280;22011;59.912;30.300;2023-07-08T04:23:04;101381.75;;;18.73;67.03
35918;BME280;22011;59.912;30.300;2023-07-08T04:25:31;101376.59;;;18.91;66.35
35918;BME280;22011;59.912;30.300;2023-07-08T04:27:59;101377.88;;;19.08;66.20
35918;BME280;22011;59.912;30.300;2023-07-08T04:30:28;101368.31;;;19.19;66.02
35918;BME280;22011;59.912;30.300;2023-07-08T04:32:55;101372.69;;;19.26;64.79
35918;BME280;22011;59.912;30.300;2023-07-08T04:35:23;101382.88;;;19.24;64.56
35918;BME280;22011;59.912;30.300;2023-07-08T04:37:50;101377.06;;;19.34;64.69
35918;BME280;22011;59.912;30.300;2023-07-08T04:40:19;101378.94;;;19.47;64.64
35918;BME280;22011;59.912;30.300;2023-07-08T04:42:47;101373.34;;;19.55;63.97
35918;BME280;22011;59.912;30.300;2023-07-08T04:45:16;101377.47;;;19.38;64.57
35918;BME280;22011;59.912;30.300;2023-07-08T04:47:45;101369.78;;;19.41;65.06
35918;BME280;22011;59.912;30.300;2023-07-08T04:50:18;101373.53;;;19.47;64.61
35918;BME280;22011;59.912;30.300;2023-07-08T04:52:46;101370.41;;;19.50;64.47
35918;BME280;22011;59.912;30.300;2023-07-08T04:55:14;101360.25;;;19.52;64.48
35918;BME280;22011;59.912;30.300;2023-07-08T04:57:41;101367.09;;;19.68;64.05
35918;BME280;22011;59.912;30.300;2023-07-08T05:00:15;101362.47;;;19.81;65.32
35918;BME280;22011;59.912;30.300;2023-07-08T05:02:45;101363.97;;;19.71;64.49
35918;BME280;22011;59.912;30.300;2023-07-08T05:05:12;101359.19;;;19.73;64.16
35918;BME280;22011;59.912;30.300;2023-07-08T05:07:40;101352.13;;;19.72;63.80
35918;BME280;22011;59.912;30.300;2023-07-08T05:10:08;101359.59;;;19.70;64.51
35918;BME280;22011;59.912;30.300;2023-07-08T05:12:35;101353.38;;;19.63;64.20
35918;BME280;22011;59.912;30.300;2023-07-08T05:15:03;101361.47;;;19.69;64.13
35918;BME280;22011;59.912;30.300;2023-07-08T05:17:31;101361.69;;;19.61;64.65
35918;BME280;22011;59.912;30.300;2023-07-08T05:20:00;101366.69;;;19.57;64.53
35918;BME280;22011;59.912;30.300;2023-07-08T05:22:29;101360.66;;;19.36;64.92
35918;BME280;22011;59.912;30.300;2023-07-08T05:24:57;101364.59;;;19.26;65.17
35918;BME280;22011;59.912;30.300;2023-07-08T05:27:25;101363.34;;;19.22;65.30
35918;BME280;22011;59.912;30.300;2023-07-08T05:29:53;101365.00;;;19.30;65.30
35918;BME280;22011;59.912;30.300;2023-07-08T05:32:21;101366.47;;;19.33;64.83
35918;BME280;22011;59.912;30.300;2023-07-08T05:34:48;101358.16;;;19.34;64.90
35918;BME280;22011;59.912;30.300;2023-07-08T05:37:17;101360.63;;;19.49;65.12
35918;BME280;22011;59.912;30.300;2023-07-08T05:39:47;101361.28;;;19.71;64.18
35918;BME280;22011;59.912;30.300;2023-07-08T05:42:15;101368.75;;;19.69;63.58
35918;BME280;22011;59.912;30.300;2023-07-08T05:44:42;101363.75;;;19.72;63.67
35918;BME280;22011;59.912;30.300;2023-07-08T05:47:10;101366.00;;;19.88;64.20
35918;BME280;22011;59.912;30.300;2023-07-08T05:49:37;101355.41;;;19.80;64.02
35918;BME280;22011;59.912;30.300;2023-07-08T05:52:05;101358.31;;;19.79;63.62
35918;BME280;22011;59.912;30.300;2023-07-08T05:54:42;101357.13;;;19.68;63.58
35918;BME280;22011;59.912;30.300;2023-07-08T05:57:11;101348.75;;;19.76;62.95
35918;BME280;22011;59.912;30.300;2023-07-08T05:59:38;101344.75;;;19.99;62.38
35918;BME280;22011;59.912;30.300;2023-07-08T06:02:06;101353.25;;;20.02;62.46
35918;BME280;22011;59.912;30.300;2023-07-08T06:04:34;101343.06;;;20.04;61.54
35918;BME280;22011;59.912;30.300;2023-07-08T06:07:01;101342.22;;;20.10;61.26
35918;BME280;22011;59.912;30.300;2023-07-08T06:09:29;101343.41;;;20.21;60.66
35918;BME280;22011;59.912;30.300;2023-07-08T06:11:58;101349.00;;;20.26;60.84
35918;BME280;22011;59.912;30.300;2023-07-08T06:14:26;101346.06;;;20.34;60.36
35918;BME280;22011;59.912;30.300;2023-07-08T06:16:54;101342.13;;;20.30;60.22
35918;BME280;22011;59.912;30.300;2023-07-08T06:19:22;101337.16;;;20.72;59.89
35918;BME280;22011;59.912;30.300;2023-07-08T06:21:49;101338.34;;;20.44;60.00
35918;BME280;22011;59.912;30.300;2023-07-08T06:24:17;101336.00;;;20.54;59.49
35918;BME280;22011;59.912;30.300;2023-07-08T06:26:44;101335.22;;;20.47;59.64
35918;BME280;22011;59.912;30.300;2023-07-08T06:29:13;101341.69;;;20.40;60.57
35918;BME280;22011;59.912;30.300;2023-07-08T06:31:42;101333.47;;;20.60;58.76
35918;BME280;22011;59.912;30.300;2023-07-08T06:34:09;101324.84;;;20.31;59.22
35918;BME280;22011;59.912;30.300;2023-07-08T06:36:37;101329.81;;;20.34;59.06
35918;BME280;22011;59.912;30.300;2023-07-08T06:39:04;101327.59;;;20.18;59.16
35918;BME280;22011;59.912;30.300;2023-07-08T06:41:34;101335.28;;;20.21;59.28
35918;BME280;22011;59.912;30.300;2023-07-08T06:44:01;101323.19;;;20.30;58.86
35918;BME280;22011;59.912;30.300;2023-07-08T06:46:33;101318.16;;;21.03;58.94
35918;BME280;22011;59.912;30.300;2023-07-08T06:49:00;101316.00;;;20.55;58.21
35918;BME280;22011;59.912;30.300;2023-07-08T06:51:29;101310.25;;;20.77;57.95
35918;BME280;22011;59.912;30.300;2023-07-08T06:53:56;101311.91;;;20.78;58.07
35918;BME280;22011;59.912;30.300;2023-07-08T06:56:24;101312.94;;;20.77;57.34
35918;BME280;22011;59.912;30.300;2023-07-08T06:58:51;101306.72;;;20.76;57.02
35918;BME280;22011;59.912;30.300;2023-07-08T07:01:19;101302.13;;;20.77;56.81
35918;BME280;22011;59.912;30.300;2023-07-08T07:03:48;101304.13;;;20.81;56.52
35918;BME280;22011;59.912;30.300;2023-07-08T07:06:15;101293.78;;;20.78;56.98
35918;BME280;22011;59.912;30.300;2023-07-08T07:08:43;101291.81;;;20.85;56.75
35918;BME280;22011;59.912;30.300;2023-07-08T07:11:10;101294.19;;;21.00;56.74
35918;BME280;22011;59.912;30.300;2023-07-08T07:13:38;101284.97;;;21.08;56.60
35918;BME280;22011;59.912;30.300;2023-07-08T07:16:05;101284.09;;;21.14;56.36
35918;BME280;22011;59.912;30.300;2023-07-08T07:18:33;101294.00;;;21.27;55.92
35918;BME280;22011;59.912;30.300;2023-07-08T07:21:02;101289.81;;;21.31;56.67
35918;BME280;22011;59.912;30.300;2023-07-08T07:23:29;101289.19;;;21.29;56.59
35918;BME280;22011;59.912;30.300;2023-07-08T07:25:57;101291.63;;;21.37;55.73
35918;BME280;22011;59.912;30.300;2023-07-08T07:28:25;101291.63;;;21.37;55.27
35918;BME280;22011;59.912;30.300;2023-07-08T07:30:56;101297.81;;;21.44;56.61
35918;BME280;22011;59.912;30.300;2023-07-08T07:33:24;101294.09;;;21.38;55.72
35918;BME280;22011;59.912;30.300;2023-07-08T07:35:52;101304.00;;;21.51;55.81
35918;BME280;22011;59.912;30.300;2023-07-08T07:38:21;101305.34;;;21.60;56.21
35918;BME280;22011;59.912;30.300;2023-07-08T07:40:52;101299.72;;;21.80;56.14
35918;BME280;22011;59.912;30.300;2023-07-08T07:43:20;101302.47;;;21.92;54.74
35918;BME280;22011;59.912;30.300;2023-07-08T07:45:50;101303.56;;;22.09;54.07
35918;BME280;22011;59.912;30.300;2023-07-08T07:48:18;101302.69;;;22.27;53.22
35918;BME280;22011;59.912;30.300;2023-07-08T07:50:46;101299.16;;;22.26;53.17
35918;BME280;22011;59.912;30.300;2023-07-08T07:53:14;101293.66;;;22.14;53.41
35918;BME280;22011;59.912;30.300;2023-07-08T07:55:43;101301.28;;;22.06;54.12
35918;BME280;22011;59.912;30.300;2023-07-08T07:58:11;101297.63;;;22.30;52.69
35918;BME280;22011;59.912;30.300;2023-07-08T08:00:39;101305.94;;;22.17;52.76
35918;BME280;22011;59.912;30.300;2023-07-08T08:03:06;101308.97;;;22.09;53.58
35918;BME280;22011;59.912;30.300;2023-07-08T08:05:34;101304.44;;;21.84;53.62
35918;BME280;22011;59.912;30.300;2023-07-08T08:08:01;101306.25;;;21.91;53.86
35918;BME280;22011;59.912;30.300;2023-07-08T08:10:30;101307.63;;;21.63;53.37
35918;BME280;22011;59.912;30.300;2023-07-08T08:13:00;101309.78;;;21.54;54.38
35918;BME280;22011;59.912;30.300;2023-07-08T08:15:27;101297.38;;;21.65;54.20
35918;BME280;22011;59.912;30.300;2023-07-08T08:17:55;101300.97;;;21.96;54.35
35918;BME280;22011;59.912;30.300;2023-07-08T08:20:24;101310.72;;;22.03;53.22
35918;BME280;22011;59.912;30.300;2023-07-08T08:22:52;101297.91;;;22.10;52.96
35918;BME280;22011;59.912;30.300;2023-07-08T08:25:21;101301.25;;;22.24;52.72
35918;BME280;22011;59.912;30.300;2023-07-08T08:27:49;101288.38;;;22.49;52.06
35918;BME280;22011;59.912;30.300;2023-07-08T08:30:19;101288.69;;;22.71;52.15
35918;BME280;22011;59.912;30.300;2023-07-08T08:32:47;101286.63;;;22.85;51.54
35918;BME280;22011;59.912;30.300;2023-07-08T08:35:15;101281.50;;;22.77;51.84
35918;BME280;22011;59.912;30.300;2023-07-08T08:37:42;101270.38;;;22.67;52.08
35918;BME280;22011;59.912;30.300;2023-07-08T08:40:13;101273.56;;;22.64;53.38
35918;BME280;22011;59.912;30.300;2023-07-08T08:42:44;101276.44;;;22.92;51.74
35918;BME280;22011;59.912;30.300;2023-07-08T08:45:17;101278.25;;;23.10;51.94
35918;BME280;22011;59.912;30.300;2023-07-08T08:47:51;101277.88;;;23.06;52.65
35918;BME280;22011;59.912;30.300;2023-07-08T08:50:29;101274.72;;;23.56;53.09
35918;BME280;22011;59.912;30.300;2023-07-08T08:53:01;101275.53;;;23.10;50.90
35918;BME280;22011;59.912;30.300;2023-07-08T08:55:30;101274.09;;;23.31;50.25
35918;BME280;22011;59.912;30.300;2023-07-08T08:58:13;101280.03;;;24.03;50.72
35918;BME280;22011;59.912;30.300;2023-07-08T09:00:50;101285.25;;;23.93;51.05
35918;BME280;22011;59.912;30.300;2023-07-08T09:03:37;101281.91;;;23.27;51.45
35918;BME280;22011;59.912;30.300;2023-07-08T09:06:15;101297.38;;;22.80;53.08
35918;BME280;22011;59.912;30.300;2023-07-08T09:08:44;101285.81;;;22.25;53.55
35918;BME280;22011;59.912;30.300;2023-07-08T09:11:19;101292.09;;;22.07;54.91
35918;BME280;22011;59.912;30.300;2023-07-08T09:13:49;101283.84;;;21.95;54.87
35918;BME280;22011;59.912;30.300;2023-07-08T09:16:25;101292.97;;;22.19;54.82
35918;BME280;22011;59.912;30.300;2023-07-08T09:18:59;101293.13;;;22.24;55.63
35918;BME280;22011;59.912;30.300;2023-07-08T09:21:31;101292.38;;;21.99;55.21
35918;BME280;22011;59.912;30.300;2023-07-08T09:24:07;101280.03;;;22.03;56.35
35918;BME280;22011;59.912;30.300;2023-07-08T09:26:36;101275.50;;;22.15;54.34
35918;BME280;22011;59.912;30.300;2023-07-08T09:29:08;101276.00;;;22.24;54.86
35918;BME280;22011;59.912;30.300;2023-07-08T09:31:38;101282.94;;;22.19;54.28
35918;BME280;22011;59.912;30.300;2023-07-08T09:34:11;101276.09;;;21.99;54.64
35918;BME280;22011;59.912;30.300;2023-07-08T09:36:41;101277.88;;;21.75;55.08
35918;BME280;22011;59.912;30.300;2023-07-08T09:39:10;101279.28;;;21.59;55.00
35918;BME280;22011;59.912;30.300;2023-07-08T09:41:39;101281.25;;;21.70;56.06
35918;BME280;22011;59.912;30.300;2023-07-08T09:44:17;101281.25;;;21.70;57.06
35918;BME280;22011;59.912;30.300;2023-07-08T09:46:45;101276.88;;;21.51;56.34
35918;BME280;22011;59.912;30.300;2023-07-08T09:49:19;101271.00;;;21.54;57.56
35918;BME280;22011;59.912;30.300;2023-07-08T09:51:49;101279.72;;;21.38;56.29
35918;BME280;22011;59.912;30.300;2023-07-08T09:54:18;101280.50;;;21.45;57.05
35918;BME280;22011;59.912;30.300;2023-07-08T09:56:54;101276.59;;;21.77;56.99
35918;BME280;22011;59.912;30.300;2023-07-08T09:59:27;101268.41;;;21.96;55.58
35918;BME280;22011;59.912;30.300;2023-07-08T10:02:00;101268.63;;;21.94;55.07
35918;BME280;22011;59.912;30.300;2023-07-08T10:04:30;101267.63;;;21.77;55.23
35918;BME280;22011;59.912;30.300;2023-07-08T10:06:59;101265.44;;;21.67;55.09
35918;BME280;22011;59.912;30.300;2023-07-08T10:09:27;101259.88;;;21.80;54.35
35918;BME280;22011;59.912;30.300;2023-07-08T10:11:58;101253.44;;;22.53;55.04
35918;BME280;22011;59.912;30.300;2023-07-08T10:14:31;101257.84;;;22.66;53.06
35918;BME280;22011;59.912;30.300;2023-07-08T10:17:01;101254.94;;;23.02;51.72
35918;BME280;22011;59.912;30.300;2023-07-08T10:19:30;101260.63;;;23.01;52.15
35918;BME280;22011;59.912;30.300;2023-07-08T10:22:07;101254.84;;;23.32;53.12
35918;BME280;22011;59.912;30.300;2023-07-08T10:24:50;101267.97;;;23.35;53.68
35918;BME280;22011;59.912;30.300;2023-07-08T10:27:24;101269.97;;;23.16;53.57
35918;BME280;22011;59.912;30.300;2023-07-08T10:30:01;101267.38;;;23.22;53.31
35918;BME280;22011;59.912;30.300;2023-07-08T10:32:36;101266.06;;;23.24;53.55
35918;BME280;22011;59.912;30.300;2023-07-08T10:35:15;101260.28;;;23.21;53.32
35918;BME280;22011;59.912;30.300;2023-07-08T10:37:56;101265.72;;;23.67;52.67
35918;BME280;22011;59.912;30.300;2023-07-08T10:40:42;101259.63;;;23.89;52.36
35918;BME280;22011;59.912;30.300;2023-07-08T10:43:38;101255.78;;;24.01;51.53
35918;BME280;22011;59.912;30.300;2023-07-08T10:46:18;101254.34;;;23.99;51.44
35918;BME280;22011;59.912;30.300;2023-07-08T10:51:51;101257.66;;;23.72;51.30
35918;BME280;22011;59.912;30.300;2023-07-08T10:54:44;101252.84;;;23.28;52.65
35918;BME280;22011;59.912;30.300;2023-07-08T11:00:27;101262.16;;;22.85;52.93
35918;BME280;22011;59.912;30.300;2023-07-08T11:03:33;101262.19;;;22.55;55.58
35918;BME280;22011;59.912;30.300;2023-07-08T11:06:10;101275.50;;;22.15;55.47
35918;BME280;22011;59.912;30.300;2023-07-08T11:08:42;101276.53;;;21.96;56.21
35918;BME280;22011;59.912;30.300;2023-07-08T11:11:17;101282.91;;;21.71;56.69
35918;BME280;22011;59.912;30.300;2023-07-08T11:13:53;101279.97;;;21.54;55.64
35918;BME280;22011;59.912;30.300;2023-07-08T11:16:26;101281.72;;;21.67;55.64
35918;BME280;22011;59.912;30.300;2023-07-08T11:19:00;101283.81;;;21.83;55.53
35918;BME280;22011;59.912;30.300;2023-07-08T11:21:36;101288.16;;;21.84;55.87
35918;BME280;22011;59.912;30.300;2023-07-08T11:24:11;101290.44;;;21.69;56.11
35918;BME280;22011;59.912;30.300;2023-07-08T11:26:45;101292.78;;;21.66;55.98
35918;BME280;22011;59.912;30.300;2023-07-08T11:29:18;101289.09;;;21.78;56.55
35918;BME280;22011;59.912;30.300;2023-07-08T11:31:48;101290.13;;;21.96;56.44
35918;BME280;22011;59.912;30.300;2023-07-08T11:34:18;101287.84;;;22.29;56.24
35918;BME280;22011;59.912;30.300;2023-07-08T11:36:48;101300.03;;;22.38;55.36
35918;BME280;22011;59.912;30.300;2023-07-08T11:39:31;101295.66;;;22.37;55.89
35918;BME280;22011;59.912;30.300;2023-07-08T11:42:19;101303.44;;;22.34;56.71
35918;BME280;22011;59.912;30.300;2023-07-08T11:44:50;101296.75;;;22.00;55.60
35918;BME280;22011;59.912;30.300;2023-07-08T11:47:24;101295.41;;;22.09;55.42
35918;BME280;22011;59.912;30.300;2023-07-08T11:49:53;101304.16;;;22.11;55.34
35918;BME280;22011;59.912;30.300;2023-07-08T11:52:22;101304.53;;;22.44;55.09
35918;BME280;22011;59.912;30.300;2023-07-08T11:54:58;101299.66;;;22.65;54.09
35918;BME280;22011;59.912;30.300;2023-07-08T11:57:29;101303.19;;;22.05;53.41
35918;BME280;22011;59.912;30.300;2023-07-08T12:00:15;101296.25;;;22.09;53.44
35918;BME280;22011;59.912;30.300;2023-07-08T12:02:49;101298.19;;;22.02;52.82
35918;BME280;22011;59.912;30.300;2023-07-08T12:05:29;101301.13;;;22.19;52.36
35918;BME280;22011;59.912;30.300;2023-07-08T12:07:58;101300.97;;;21.96;52.13
35918;BME280;22011;59.912;30.300;2023-07-08T12:10:31;101298.38;;;22.37;52.38
35918;BME280;22011;59.912;30.300;2023-07-08T12:12:59;101306.13;;;22.04;52.59
35918;BME280;22011;59.912;30.300;2023-07-08T12:15:28;101306.88;;;22.11;51.71
35918;BME280;22011;59.912;30.300;2023-07-08T12:17:59;101305.31;;;22.33;51.44
35918;BME280;22011;59.912;30.300;2023-07-08T12:20:29;101310.25;;;22.55;50.94
35918;BME280;22011;59.912;30.300;2023-07-08T12:22:57;101301.31;;;22.66;50.83
35918;BME280;22011;59.912;30.300;2023-07-08T12:25:31;101303.38;;;22.94;51.11
35918;BME280;22011;59.912;30.300;2023-07-08T12:28:01;101301.13;;;22.91;49.95
35918;BME280;22011;59.912;30.300;2023-07-08T12:30:30;101296.19;;;22.99;50.45
35918;BME280;22011;59.912;30.300;2023-07-08T12:33:00;101293.47;;;22.99;50.40
35918;BME280;22011;59.912;30.300;2023-07-08T12:35:29;101287.56;;;23.02;51.01
35918;BME280;22011;59.912;30.300;2023-07-08T12:37:59;101282.63;;;23.11;50.71
35918;BME280;22011;59.912;30.300;2023-07-08T12:40:28;101285.22;;;23.06;50.50
35918;BME280;22011;59.912;30.300;2023-07-08T12:42:58;101287.56;;;23.14;50.11
35918;BME280;22011;59.912;30.300;2023-07-08T12:45:28;101280.38;;;23.08;50.12
35918;BME280;22011;59.912;30.300;2023-07-08T12:47:57;101290.88;;;23.04;49.61
35918;BME280;22011;59.912;30.300;2023-07-08T12:50:24;101288.50;;;22.96;50.88
35918;BME280;22011;59.912;30.300;2023-07-08T12:52:52;101283.63;;;22.75;50.89
35918;BME280;22011;59.912;30.300;2023-07-08T12:55:20;101287.31;;;22.50;52.27
35918;BME280;22011;59.912;30.300;2023-07-08T12:57:49;101305.81;;;22.42;52.11
35918;BME280;22011;59.912;30.300;2023-07-08T13:00:23;101310.09;;;22.49;55.72
35918;BME280;22011;59.912;30.300;2023-07-08T13:02:57;101314.59;;;22.26;53.36